LIEE

Cagliari Elmas Airport

Cagliari, Italy
TAF LIEE 182300Z 1900/1924 33006KT 9999 SCT030 BECMG 1910/1912 14012KT
Issued Valid From Valid To
Dec-18 @ 23:00 UTC
(an hour ago)
Dec-19 @ 00:00 UTC
(18 minutes ago)
Dec-20 @ 00:00 UTC
(in 24 hours)
Dec-19 @ 00:00 to Dec-19 @ 10:00
TAF LIEE 182300Z 1900/1924 33006KT 9999 SCT030
Wind Visibility Clouds
330° at 6 knots 10,000+ meters
  • Scattered at 3,000' AGL
Becoming Dec-19 @ 10:00 to Dec-20 @ 00:00
BECMG 1910/1912 14012KT
Wind Visibility Clouds
140° at 12 knots 10,000+ meters
  • Scattered at 3,000' AGL
TAF LIEE 182300Z 1900/1924 33006KT 9999 SCT030 BECMG 1910/1912 14012KT
Issued Dec-18 @ 23:00 UTC
(an hour ago)
Valid From Dec-19 @ 00:00 UTC
(18 minutes ago)
Valid To Dec-20 @ 00:00 UTC
(in 24 hours)
Dec-19 @ 00:00 - Dec-19 @ 10:00
Wind Visibility
330° at 6 knots 10,000+ meters
Clouds
  • Scattered at 3,000' AGL
Becoming Dec-19 @ 10:00 - Dec-20 @ 00:00
Wind Visibility
140° at 12 knots 10,000+ meters
Clouds
  • Scattered at 3,000' AGL